Time;durP1;ratioP1;P1;durP2;ratioP2;P2;SDS_P1;SDS_P2;PMS_P1;PMS_P2;Temp;Humidity;BMP_temperature;BMP_pressure;BME280_temperature;BME280_humidity;BME280_pressure;Samples;Min_cycle;Max_cycle;Signal;HPM_P1;HPM_P2
2022/03/21 00:00:47;;;;;;;33.50;11.60;;;;;;;0.38;44.47;102638.38;105486;1277;22679;-58
2022/03/21 00:03:20;;;;;;;31.20;13.00;;;;;;;0.34;44.51;102638.46;105447;1278;22669;-54
2022/03/21 00:05:52;;;;;;;33.20;13.60;;;;;;;0.32;44.45;102642.48;105558;1277;24234;-55
2022/03/21 00:08:24;;;;;;;34.80;13.30;;;;;;;0.29;44.40;102645.84;105564;1276;24437;-54
2022/03/21 00:10:57;;;;;;;33.10;13.80;;;;;;;0.25;44.57;102644.31;106391;1261;24255;-55
2022/03/21 00:13:29;;;;;;;39.10;15.20;;;;;;;0.21;44.57;102641.33;106188;1271;24367;-54
2022/03/21 00:16:01;;;;;;;35.90;15.00;;;;;;;0.18;44.49;102641.05;106239;1271;22766;-58
2022/03/21 00:18:34;;;;;;;37.10;14.50;;;;;;;0.13;44.55;102639.91;106698;1271;22812;-60
2022/03/21 00:21:06;;;;;;;33.50;13.10;;;;;;;0.11;44.72;102642.21;106108;1271;22720;-56
2022/03/21 00:23:37;;;;;;;37.30;13.60;;;;;;;0.09;44.73;102643.09;106292;1271;25603;-56
2022/03/21 00:26:09;;;;;;;33.00;14.90;;;;;;;0.07;44.80;102640.35;106324;1271;25646;-60
2022/03/21 00:28:40;;;;;;;37.50;12.60;;;;;;;0.03;44.92;102644.00;106361;1271;24253;-59
2022/03/21 00:31:12;;;;;;;34.20;12.80;;;;;;;0.01;45.02;102649.55;106146;1271;22837;-59
2022/03/21 00:33:44;;;;;;;35.40;12.00;;;;;;;-0.01;45.05;102645.64;106091;1271;22691;-58
2022/03/21 00:36:15;;;;;;;34.40;12.30;;;;;;;-0.03;45.10;102641.95;105960;1271;22532;-64
2022/03/21 00:38:47;;;;;;;37.30;14.50;;;;;;;-0.05;45.29;102637.52;106217;1271;22547;-58
2022/03/21 00:41:19;;;;;;;35.50;14.10;;;;;;;-0.06;45.25;102636.77;106021;1271;26907;-58
2022/03/21 00:43:53;;;;;;;38.50;13.50;;;;;;;-0.08;45.23;102634.91;106041;1271;25704;-60
2022/03/21 00:46:25;;;;;;;36.40;12.50;;;;;;;-0.11;45.34;102634.11;106131;1271;22909;-58
2022/03/21 00:48:57;;;;;;;37.70;13.10;;;;;;;-0.15;45.28;102629.64;106276;1271;24185;-58
2022/03/21 00:51:31;;;;;;;31.40;12.70;;;;;;;-0.18;45.51;102627.11;106350;1271;24359;-56
2022/03/21 00:54:02;;;;;;;37.40;12.80;;;;;;;-0.21;45.56;102624.59;105928;1271;25556;-59
2022/03/21 00:56:34;;;;;;;31.20;11.60;;;;;;;-0.24;45.68;102623.86;106021;1271;22613;-55
2022/03/21 00:59:06;;;;;;;30.80;11.70;;;;;;;-0.26;45.79;102621.60;106049;1271;25547;-54
2022/03/21 01:01:37;;;;;;;35.80;12.90;;;;;;;-0.29;45.88;102622.48;106020;1272;25552;-57
2022/03/21 01:04:09;;;;;;;32.80;12.20;;;;;;;-0.31;45.95;102619.98;106208;1271;22706;-57
2022/03/21 01:06:40;;;;;;;33.20;12.50;;;;;;;-0.33;45.93;102620.70;106077;1271;22674;-57
2022/03/21 01:09:14;;;;;;;31.70;11.90;;;;;;;-0.36;45.88;102618.89;106206;1271;22971;-56
2022/03/21 01:11:46;;;;;;;37.20;12.30;;;;;;;-0.38;45.98;102618.75;105992;1274;22632;-57
2022/03/21 01:14:18;;;;;;;32.40;12.50;;;;;;;-0.41;45.99;102616.79;105959;1271;25799;-58
2022/03/21 01:16:54;;;;;;;31.60;11.80;;;;;;;-0.43;46.03;102615.92;106107;1271;24281;-59
2022/03/21 01:19:27;;;;;;;33.10;11.80;;;;;;;-0.47;46.08;102616.14;106239;1271;25526;-59
2022/03/21 01:21:59;;;;;;;33.40;12.00;;;;;;;-0.50;46.30;102617.38;106083;1274;24987;-57
2022/03/21 01:24:31;;;;;;;30.40;10.50;;;;;;;-0.52;46.30;102612.13;106023;1271;25573;-57
2022/03/21 01:27:04;;;;;;;30.60;11.60;;;;;;;-0.55;46.35;102614.23;105729;1271;22660;-56
2022/03/21 01:29:37;;;;;;;29.80;11.90;;;;;;;-0.57;46.37;102617.75;106088;1271;22669;-59
2022/03/21 01:32:10;;;;;;;30.00;12.10;;;;;;;-0.60;46.44;102618.79;106079;1271;24292;-57
2022/03/21 01:34:41;;;;;;;31.80;11.90;;;;;;;-0.62;46.61;102617.86;106059;1271;22702;-61
2022/03/21 01:37:13;;;;;;;30.50;12.30;;;;;;;-0.65;46.42;102613.84;106114;1271;26071;-58
2022/03/21 01:39:44;;;;;;;30.00;11.60;;;;;;;-0.68;46.55;102616.11;106012;1271;26093;-57
2022/03/21 01:42:16;;;;;;;35.40;13.00;;;;;;;-0.71;46.72;102612.33;106115;1271;23307;-62
2022/03/21 01:44:53;;;;;;;36.00;14.40;;;;;;;-0.74;46.65;102607.29;106155;1273;25916;-55
2022/03/21 01:47:24;;;;;;;39.40;14.50;;;;;;;-0.77;46.82;102606.27;106063;1271;25614;-56
2022/03/21 01:49:55;;;;;;;33.80;13.80;;;;;;;-0.81;46.79;102604.81;105832;1271;23058;-56
2022/03/21 01:52:27;;;;;;;43.60;14.60;;;;;;;-0.84;46.81;102602.63;106021;1272;23582;-58
2022/03/21 01:57:48;;;;;;;43.00;16.60;;;;;;;-0.92;46.97;102600.95;105946;1271;22600;-57
2022/03/21 02:00:21;;;;;;;47.10;17.80;;;;;;;-0.98;46.88;102605.05;106085;1271;25623;-61
2022/03/21 02:02:53;;;;;;;41.80;16.70;;;;;;;-1.05;46.78;102603.44;106064;1271;23192;-59
2022/03/21 02:05:24;;;;;;;43.80;17.30;;;;;;;-1.10;46.96;102602.41;105951;1273;26427;-56
2022/03/21 02:07:56;;;;;;;46.20;17.70;;;;;;;-1.14;47.04;102600.47;105994;1271;24373;-55
2022/03/21 02:10:28;;;;;;;43.60;16.70;;;;;;;-1.18;47.11;102599.64;106009;1271;24257;-58
2022/03/21 02:12:59;;;;;;;42.00;14.90;;;;;;;-1.21;47.27;102601.59;106121;1271;22700;-58
2022/03/21 02:15:31;;;;;;;40.20;14.60;;;;;;;-1.23;47.28;102601.10;106361;1271;22615;-60
2022/03/21 02:18:05;;;;;;;41.10;16.90;;;;;;;-1.27;47.39;102602.64;106150;1271;24344;-56
2022/03/21 02:20:41;;;;;;;47.10;16.50;;;;;;;-1.29;47.39;102597.33;106288;1271;22738;-56
2022/03/21 02:23:17;;;;;;;38.30;15.50;;;;;;;-1.32;47.46;102602.77;106122;1271;22784;-56
2022/03/21 02:25:49;;;;;;;40.50;15.90;;;;;;;-1.39;47.47;102598.73;105965;1271;22763;-58
2022/03/21 02:28:22;;;;;;;39.00;15.10;;;;;;;-1.44;47.57;102597.62;106106;1271;25455;-56
2022/03/21 02:30:57;;;;;;;36.50;15.30;;;;;;;-1.46;47.71;102596.98;106090;1271;24359;-59
2022/03/21 02:33:28;;;;;;;38.30;13.90;;;;;;;-1.46;47.81;102594.17;106255;1271;22642;-58
2022/03/21 02:36:02;;;;;;;39.30;14.20;;;;;;;-1.46;47.99;102591.10;106216;1271;22638;-57
2022/03/21 02:38:36;;;;;;;35.20;14.70;;;;;;;-1.46;48.08;102589.30;106279;1270;22689;-57
2022/03/21 02:41:08;;;;;;;40.50;15.90;;;;;;;-1.48;48.08;102594.19;105982;1271;24645;-58
2022/03/21 02:43:53;;;;;;;39.70;14.90;;;;;;;-1.52;48.15;102597.62;105999;1271;25449;-56
2022/03/21 02:46:25;;;;;;;39.80;15.30;;;;;;;-1.60;48.24;102594.55;106114;1271;25478;-58
2022/03/21 02:48:58;;;;;;;36.50;14.60;;;;;;;-1.66;48.36;102595.44;106097;1271;22680;-58
2022/03/21 02:51:33;;;;;;;37.20;15.00;;;;;;;-1.68;48.34;102595.61;106294;1271;24323;-55
2022/03/21 02:54:04;;;;;;;36.70;13.80;;;;;;;-1.68;48.46;102592.48;106105;1271;26410;-58
2022/03/21 02:56:36;;;;;;;38.70;15.00;;;;;;;-1.67;48.47;102594.30;106173;1271;25469;-61
2022/03/21 02:59:08;;;;;;;41.30;15.70;;;;;;;-1.70;48.59;102594.27;106195;1271;25573;-57
2022/03/21 03:01:41;;;;;;;38.60;14.10;;;;;;;-1.75;48.56;102598.20;106208;1271;22813;-56
2022/03/21 03:04:13;;;;;;;40.60;14.50;;;;;;;-1.76;48.62;102598.85;106128;1271;23173;-58
2022/03/21 03:06:44;;;;;;;37.70;13.30;;;;;;;-1.76;48.75;102601.43;106169;1271;26033;-61
2022/03/21 03:09:18;;;;;;;38.10;15.10;;;;;;;-1.76;48.79;102598.53;106105;1271;24481;-60
2022/03/21 03:11:50;;;;;;;38.20;14.40;;;;;;;-1.77;48.99;102598.52;106039;1271;25608;-55
2022/03/21 03:14:21;;;;;;;43.40;16.50;;;;;;;-1.79;48.97;102598.05;105874;1271;22806;-57
2022/03/21 03:16:53;;;;;;;40.50;15.20;;;;;;;-1.81;49.08;102601.58;106043;1271;26782;-58
2022/03/21 03:19:24;;;;;;;39.90;16.10;;;;;;;-1.82;49.13;102603.49;106027;1272;25467;-56
2022/03/21 03:21:57;;;;;;;45.00;14.50;;;;;;;-1.84;49.12;102604.38;106102;1271;22787;-55
2022/03/21 03:24:30;;;;;;;45.00;15.60;;;;;;;-1.86;49.16;102602.73;106394;1270;25030;-57
2022/03/21 03:27:01;;;;;;;38.40;15.20;;;;;;;-1.88;49.24;102604.90;105958;1271;22618;-60
2022/03/21 03:29:33;;;;;;;43.70;16.70;;;;;;;-1.91;49.26;102601.36;106224;1271;24236;-56
2022/03/21 03:32:05;;;;;;;40.60;15.10;;;;;;;-1.94;49.22;102599.45;106095;1270;22578;-56
2022/03/21 03:34:38;;;;;;;44.40;15.10;;;;;;;-1.97;49.22;102596.40;106037;1271;22613;-57
2022/03/21 03:37:09;;;;;;;41.50;15.60;;;;;;;-1.99;49.23;102597.20;106070;1271;23749;-60
2022/03/21 03:39:41;;;;;;;42.90;15.90;;;;;;;-2.01;49.44;102597.73;106059;1271;25654;-57
2022/03/21 03:42:13;;;;;;;41.70;16.40;;;;;;;-2.04;49.61;102599.79;106002;1271;24621;-60
2022/03/21 03:44:45;;;;;;;42.10;15.90;;;;;;;-2.08;49.54;102603.66;106183;1271;24312;-56
2022/03/21 03:47:16;;;;;;;35.60;14.60;;;;;;;-2.11;49.80;102604.65;106079;1271;25544;-57
2022/03/21 03:49:48;;;;;;;44.70;16.10;;;;;;;-2.12;49.86;102603.19;106195;1271;22618;-60
2022/03/21 03:52:19;;;;;;;43.20;16.70;;;;;;;-2.14;49.89;102601.02;106137;1271;26808;-57
2022/03/21 03:54:51;;;;;;;44.40;16.80;;;;;;;-2.16;49.94;102599.70;106327;1271;22722;-54
2022/03/21 03:57:24;;;;;;;36.80;14.80;;;;;;;-2.18;50.22;102601.73;106210;1271;22767;-57
2022/03/21 03:59:56;;;;;;;44.80;16.60;;;;;;;-2.22;50.26;102602.10;106111;1271;22851;-57
2022/03/21 04:02:27;;;;;;;41.10;15.90;;;;;;;-2.27;50.39;102601.00;105955;1271;22664;-57
2022/03/21 04:04:59;;;;;;;54.80;18.90;;;;;;;-2.30;50.38;102601.21;106169;1271;25462;-58
2022/03/21 04:07:30;;;;;;;44.80;17.40;;;;;;;-2.31;50.42;102602.48;105982;1271;23186;-60
2022/03/21 04:10:02;;;;;;;49.10;18.20;;;;;;;-2.32;50.52;102605.64;105871;1271;24401;-59
2022/03/21 04:12:35;;;;;;;46.00;18.90;;;;;;;-2.33;50.52;102606.33;106290;1271;22661;-57
2022/03/21 04:15:09;;;;;;;42.30;17.00;;;;;;;-2.33;50.45;102603.75;106183;1271;22700;-57
2022/03/21 04:17:40;;;;;;;44.10;17.60;;;;;;;-2.33;50.56;102603.59;106172;1271;25607;-58
2022/03/21 04:20:14;;;;;;;42.20;16.90;;;;;;;-2.34;50.61;102604.33;106059;1271;24215;-58
2022/03/21 04:22:45;;;;;;;42.60;17.00;;;;;;;-2.36;50.78;102602.23;106015;1271;23071;-58
2022/03/21 04:25:17;;;;;;;42.30;17.90;;;;;;;-2.38;50.71;102602.93;106175;1271;24249;-61
2022/03/21 04:27:48;;;;;;;47.40;17.80;;;;;;;-2.39;50.74;102604.21;106216;1271;22805;-55
2022/03/21 04:30:20;;;;;;;44.80;18.00;;;;;;;-2.40;50.78;102602.54;106169;1271;22823;-56
2022/03/21 04:32:52;;;;;;;44.20;17.70;;;;;;;-2.41;50.82;102601.50;106154;1271;23011;-56
2022/03/21 04:35:23;;;;;;;50.30;18.10;;;;;;;-2.43;50.92;102602.89;106194;1271;22616;-58
2022/03/21 04:37:57;;;;;;;48.20;18.40;;;;;;;-2.46;50.95;102601.15;105916;1271;415887;-55
2022/03/21 04:40:28;;;;;;;46.50;19.90;;;;;;;-2.49;51.07;102603.07;106436;1271;22625;-57
2022/03/21 04:43:00;;;;;;;48.70;18.30;;;;;;;-2.50;51.07;102608.95;106244;1271;22614;-58
2022/03/21 04:45:32;;;;;;;49.50;19.70;;;;;;;-2.51;50.97;102612.61;106204;1271;25852;-59
2022/03/21 04:48:03;;;;;;;54.80;20.60;;;;;;;-2.52;51.14;102613.64;106126;1271;22724;-61
2022/03/21 04:50:35;;;;;;;43.90;18.80;;;;;;;-2.54;51.13;102615.46;106085;1271;22780;-56
2022/03/21 04:53:10;;;;;;;50.40;21.10;;;;;;;-2.56;51.14;102617.44;105875;1271;22686;-58
2022/03/21 04:55:42;;;;;;;61.50;24.20;;;;;;;-2.58;51.31;102615.88;106077;1271;22764;-57
2022/03/21 04:58:14;;;;;;;58.40;24.30;;;;;;;-2.59;51.41;102615.10;106321;1271;22750;-57
2022/03/21 05:00:45;;;;;;;51.40;22.70;;;;;;;-2.61;51.47;102614.12;106084;1271;23158;-57
2022/03/21 05:03:17;;;;;;;53.60;23.30;;;;;;;-2.61;51.59;102613.14;106077;1271;22835;-57
2022/03/21 05:05:50;;;;;;;61.40;25.60;;;;;;;-2.62;51.65;102617.09;106191;1271;22786;-59
2022/03/21 05:08:23;;;;;;;101.60;53.30;;;;;;;-2.63;51.84;102615.20;106142;1270;23075;-61
2022/03/21 05:10:54;;;;;;;130.50;73.10;;;;;;;-2.63;51.96;102624.33;106124;1271;25138;-57
2022/03/21 05:13:26;;;;;;;119.60;73.20;;;;;;;-2.65;52.04;102624.34;106227;1271;22659;-57
2022/03/21 05:15:57;;;;;;;109.60;63.00;;;;;;;-2.65;52.05;102625.58;106076;1271;25097;-59
2022/03/21 05:18:29;;;;;;;83.70;42.10;;;;;;;-2.65;52.21;102626.20;106286;1271;24746;-58
2022/03/21 05:21:01;;;;;;;59.80;27.30;;;;;;;-2.65;52.43;102631.07;105993;1271;23170;-59
2022/03/21 05:31:58;;;;;;;50.80;20.90;;;;;;;-2.62;52.92;102638.29;106062;1271;22906;-62
2022/03/21 05:37:18;;;;;;;51.60;21.10;;;;;;;-2.56;52.97;102642.17;105784;1271;22761;-62
2022/03/21 05:42:39;;;;;;;54.90;22.60;;;;;;;-2.51;53.28;102637.00;106110;1271;26783;-60
2022/03/21 05:45:19;;;;;;;57.70;23.50;;;;;;;-2.49;53.06;102637.94;106191;1271;22774;-59
2022/03/21 05:50:43;;;;;;;58.10;21.40;;;;;;;-2.42;53.22;102643.27;105765;1271;22962;-65
2022/03/21 05:53:14;;;;;;;55.70;21.90;;;;;;;-2.39;53.34;102648.84;106084;1270;22860;-61
2022/03/21 05:55:46;;;;;;;58.70;23.40;;;;;;;-2.36;53.48;102655.23;105967;1271;23081;-63
2022/03/21 05:58:19;;;;;;;58.70;23.30;;;;;;;-2.32;53.55;102656.08;106132;1271;24488;-60
2022/03/21 06:00:51;;;;;;;56.60;23.60;;;;;;;-2.28;53.75;102658.74;105643;1271;22632;-60
2022/03/21 06:03:24;;;;;;;57.70;24.10;;;;;;;-2.23;53.83;102659.92;106378;1270;25069;-62
2022/03/21 06:05:57;;;;;;;60.20;23.70;;;;;;;-2.18;53.67;102656.52;106223;1270;22597;-60
2022/03/21 06:08:29;;;;;;;59.50;22.90;;;;;;;-2.13;53.89;102655.41;106149;1270;22555;-63
2022/03/21 06:11:08;;;;;;;61.80;23.50;;;;;;;-2.08;53.79;102653.07;106119;1271;22691;-61
2022/03/21 06:13:43;;;;;;;61.10;23.90;;;;;;;-2.02;53.94;102653.99;106400;1261;22713;-58
2022/03/21 06:16:15;;;;;;;57.00;24.00;;;;;;;-1.96;53.98;102656.73;105889;1271;26387;-58
2022/03/21 06:18:46;;;;;;;63.50;24.00;;;;;;;-1.87;53.99;102655.46;105670;1275;24466;-66
2022/03/21 06:21:18;;;;;;;56.90;24.00;;;;;;;-1.79;54.12;102657.48;105714;1274;25628;-59
2022/03/21 06:23:49;;;;;;;61.70;22.80;;;;;;;-1.71;54.16;102661.01;105803;1274;22550;-59
2022/03/21 06:26:21;;;;;;;57.80;23.30;;;;;;;-1.61;54.22;102662.52;105631;1274;23031;-59
2022/03/21 06:28:53;;;;;;;57.40;22.10;;;;;;;-1.50;54.22;102665.02;107098;1273;22727;-60
2022/03/21 06:31:24;;;;;;;49.80;19.60;;;;;;;-1.38;54.03;102667.54;106153;1272;22824;-60
2022/03/21 06:33:56;;;;;;;46.70;19.70;;;;;;;-1.29;54.03;102665.45;105836;1274;25690;-58
2022/03/21 06:36:28;;;;;;;56.60;22.90;;;;;;;-1.18;53.91;102666.90;105927;1274;24869;-59
2022/03/21 06:39:00;;;;;;;56.50;21.70;;;;;;;-1.07;53.95;102667.13;105792;1274;25583;-59
2022/03/21 06:41:32;;;;;;;55.10;24.40;;;;;;;-0.95;53.75;102673.25;106338;1274;22685;-60
2022/03/21 06:44:04;;;;;;;51.10;22.40;;;;;;;-0.85;53.67;102679.06;106859;1274;22709;-58
2022/03/21 06:46:38;;;;;;;61.00;24.40;;;;;;;-0.75;53.92;102677.07;106261;1273;22628;-58
2022/03/21 06:49:10;;;;;;;60.70;23.60;;;;;;;-0.64;53.83;102683.79;106070;1274;22618;-60
2022/03/21 06:51:42;;;;;;;58.60;24.70;;;;;;;-0.54;53.78;102682.01;106391;1273;25236;-59
2022/03/21 06:54:14;;;;;;;53.10;22.30;;;;;;;-0.42;53.76;102680.89;106202;1274;25803;-60
2022/03/21 06:56:45;;;;;;;57.80;22.30;;;;;;;-0.30;53.79;102677.02;106296;1272;22719;-59
2022/03/21 06:59:17;;;;;;;54.40;21.30;;;;;;;-0.17;53.60;102675.92;106317;1274;22665;-57
2022/03/21 07:01:49;;;;;;;65.10;24.80;;;;;;;-0.05;53.38;102677.14;106291;1274;24270;-58
2022/03/21 07:04:21;;;;;;;52.30;22.70;;;;;;;0.06;53.29;102682.34;106246;1273;22591;-59
2022/03/21 07:06:52;;;;;;;54.00;22.90;;;;;;;0.20;53.27;102686.80;106216;1273;25500;-59
2022/03/21 07:09:25;;;;;;;48.80;21.40;;;;;;;0.34;53.12;102688.13;106295;1273;22669;-59
2022/03/21 07:11:56;;;;;;;54.00;21.40;;;;;;;0.46;52.96;102689.80;108446;1272;26031;-60
2022/03/21 07:14:28;;;;;;;51.90;22.40;;;;;;;0.57;52.91;102691.85;106327;1271;25529;-59
2022/03/21 07:17:00;;;;;;;53.80;22.50;;;;;;;0.68;52.87;102690.16;106262;1273;25512;-59
2022/03/21 07:19:33;;;;;;;49.40;20.20;;;;;;;0.84;52.87;102690.59;107663;1273;25548;-60
2022/03/21 07:22:07;;;;;;;45.70;20.40;;;;;;;0.98;52.68;102691.42;106564;1273;22605;-59
2022/03/21 07:24:39;;;;;;;46.90;21.20;;;;;;;1.08;52.25;102693.63;106439;1273;24351;-59
2022/03/21 07:27:12;;;;;;;47.90;18.50;;;;;;;1.19;52.20;102691.16;106278;1273;22631;-59
2022/03/21 07:29:43;;;;;;;51.30;19.80;;;;;;;1.33;52.07;102695.27;106350;1273;25571;-59
2022/03/21 07:32:17;;;;;;;51.00;21.40;;;;;;;1.43;51.76;102700.79;108950;1273;25582;-60
2022/03/21 07:34:48;;;;;;;44.50;18.40;;;;;;;1.52;51.66;102698.80;106281;1273;22672;-60
2022/03/21 07:37:22;;;;;;;50.40;19.30;;;;;;;1.64;51.62;102696.47;106349;1273;24370;-58
2022/03/21 07:39:53;;;;;;;45.20;19.30;;;;;;;1.80;51.55;102699.66;106332;1273;22489;-57
2022/03/21 07:42:25;;;;;;;45.20;19.20;;;;;;;1.92;51.34;102694.52;106287;1273;27159;-60
2022/03/21 07:47:46;;;;;;;39.30;17.10;;;;;;;2.17;51.19;102697.39;106309;1273;24231;-60
2022/03/21 07:50:19;;;;;;;47.20;17.70;;;;;;;2.36;50.92;102696.77;106318;1273;22789;-59
2022/03/21 07:52:51;;;;;;;38.80;16.50;;;;;;;2.52;50.69;102697.55;106297;1273;22597;-59
2022/03/21 07:55:23;;;;;;;40.80;16.00;;;;;;;2.72;50.12;102701.52;106346;1273;22619;-58
2022/03/21 07:57:55;;;;;;;34.10;13.50;;;;;;;2.90;49.90;102700.70;106286;1273;22619;-59
2022/03/21 08:00:26;;;;;;;34.50;11.60;;;;;;;3.02;49.37;102700.83;106355;1274;25447;-59
2022/03/21 08:02:58;;;;;;;32.50;13.20;;;;;;;3.19;48.96;102698.60;106445;1274;24840;-59
2022/03/21 08:05:30;;;;;;;30.00;11.00;;;;;;;3.40;48.74;102700.75;106427;1273;22594;-59
2022/03/21 08:08:02;;;;;;;27.30;10.50;;;;;;;3.60;48.47;102703.58;106332;1273;23873;-59
2022/03/21 08:10:34;;;;;;;28.90;10.80;;;;;;;3.78;48.36;102703.60;106388;1273;25375;-59
2022/03/21 08:13:06;;;;;;;34.00;12.50;;;;;;;3.94;48.12;102703.91;106382;1273;25017;-60
2022/03/21 08:15:38;;;;;;;31.90;11.40;;;;;;;4.09;47.62;102704.67;106352;1273;25653;-60
2022/03/21 08:18:12;;;;;;;27.70;10.50;;;;;;;4.26;47.39;102700.61;106417;1273;22698;-59
2022/03/21 08:20:45;;;;;;;30.20;9.40;;;;;;;4.42;46.98;102699.95;106362;1273;22726;-60
2022/03/21 08:23:17;;;;;;;25.40;8.60;;;;;;;4.57;46.60;102696.07;106390;1273;24378;-60
2022/03/21 08:25:49;;;;;;;27.20;10.10;;;;;;;4.72;46.45;102697.17;106313;1273;24287;-59
2022/03/21 08:28:21;;;;;;;27.30;9.60;;;;;;;4.82;46.08;102695.55;106476;1273;24231;-59
2022/03/21 08:30:52;;;;;;;23.60;8.10;;;;;;;4.93;45.71;102694.38;106312;1273;22752;-57
2022/03/21 08:33:24;;;;;;;24.60;8.90;;;;;;;5.07;45.73;102693.16;106241;1273;25432;-59
2022/03/21 08:35:55;;;;;;;27.00;9.50;;;;;;;5.16;45.48;102688.98;106355;1273;22487;-60
2022/03/21 08:38:27;;;;;;;25.80;10.00;;;;;;;5.30;45.10;102685.68;106581;1273;22529;-59
2022/03/21 08:40:58;;;;;;;24.10;9.10;;;;;;;5.45;44.65;102684.52;106513;1273;22612;-60
2022/03/21 08:43:30;;;;;;;26.60;10.60;;;;;;;5.57;44.80;102678.44;106330;1273;26526;-59
2022/03/21 08:46:01;;;;;;;22.30;7.70;;;;;;;5.71;44.34;102678.20;106433;1273;25416;-59
2022/03/21 08:51:23;;;;;;;27.10;9.60;;;;;;;6.02;43.64;102678.23;106332;1273;22538;-60
2022/03/21 08:53:55;;;;;;;22.30;8.90;;;;;;;6.08;43.60;102680.56;106472;1273;24403;-60
2022/03/21 08:56:28;;;;;;;25.10;8.40;;;;;;;6.15;42.99;102676.48;106412;1273;22574;-62
2022/03/21 08:58:59;;;;;;;27.80;10.00;;;;;;;6.29;42.79;102677.48;106460;1273;22717;-60
2022/03/21 09:01:31;;;;;;;26.20;9.00;;;;;;;6.44;42.65;102673.02;106585;1273;24235;-60
2022/03/21 09:04:04;;;;;;;22.50;7.20;;;;;;;6.57;42.17;102671.30;106363;1273;22544;-59
2022/03/21 09:06:36;;;;;;;23.10;7.90;;;;;;;6.71;41.48;102673.25;106068;1273;22580;-67
2022/03/21 09:09:07;;;;;;;25.60;8.80;;;;;;;6.84;41.55;102670.00;106285;1273;22607;-59
2022/03/21 09:11:39;;;;;;;25.30;8.30;;;;;;;6.94;41.24;102666.04;106380;1273;25386;-60
2022/03/21 09:14:12;;;;;;;25.70;9.20;;;;;;;6.99;41.03;102660.27;106454;1273;24217;-59
2022/03/21 09:16:45;;;;;;;22.50;7.80;;;;;;;7.01;40.93;102664.23;106475;1273;22537;-60
2022/03/21 09:19:18;;;;;;;24.90;8.80;;;;;;;7.09;40.80;102664.55;106438;1273;24487;-60
2022/03/21 09:21:50;;;;;;;21.50;7.60;;;;;;;7.21;40.40;102661.21;106418;1273;25582;-60
2022/03/21 09:24:22;;;;;;;23.20;8.10;;;;;;;7.30;40.31;102659.77;106379;1273;25382;-59
2022/03/21 09:26:54;;;;;;;22.10;6.80;;;;;;;7.36;40.03;102659.77;106462;1273;25380;-60
2022/03/21 09:29:27;;;;;;;24.40;8.10;;;;;;;7.42;39.69;102658.73;106445;1273;24348;-60
2022/03/21 09:31:59;;;;;;;24.30;8.00;;;;;;;7.47;39.65;102655.46;106386;1273;22820;-60
2022/03/21 09:34:32;;;;;;;24.00;7.20;;;;;;;7.57;39.08;102652.52;106421;1273;24326;-60
2022/03/21 09:37:05;;;;;;;21.70;5.70;;;;;;;7.72;38.75;102650.73;106470;1273;22955;-61
2022/03/21 09:39:36;;;;;;;17.50;5.80;;;;;;;7.83;38.70;102649.82;106407;1273;23779;-60
2022/03/21 09:42:09;;;;;;;15.50;5.00;;;;;;;7.88;38.11;102647.65;106459;1273;25372;-60
2022/03/21 09:44:40;;;;;;;14.20;4.50;;;;;;;7.97;37.35;102649.46;106487;1273;22487;-60
2022/03/21 09:50:06;;;;;;;17.70;6.00;;;;;;;8.18;37.03;102650.71;106395;1273;22622;-60
2022/03/21 09:52:39;;;;;;;20.30;4.70;;;;;;;8.22;36.88;102646.08;106495;1273;22602;-60
2022/03/21 09:55:11;;;;;;;18.40;4.90;;;;;;;8.30;36.43;102647.59;106342;1273;25262;-59
2022/03/21 09:57:43;;;;;;;15.50;4.90;;;;;;;8.39;36.28;102646.66;106459;1273;22533;-59
2022/03/21 10:00:16;;;;;;;21.50;5.90;;;;;;;8.45;36.20;102648.61;106580;1273;24337;-59
2022/03/21 10:02:48;;;;;;;19.80;5.40;;;;;;;8.47;36.09;102649.00;106416;1271;25261;-59
2022/03/21 10:05:38;;;;;;;15.20;4.40;;;;;;;8.52;35.92;102647.23;106413;1273;22475;-59
2022/03/21 10:08:20;;;;;;;14.80;5.20;;;;;;;8.64;35.10;102646.58;106460;1273;24279;-60
2022/03/21 10:10:59;;;;;;;16.40;4.80;;;;;;;8.72;34.66;102647.96;106382;1271;22680;-59
2022/03/21 10:13:33;;;;;;;18.70;4.80;;;;;;;8.77;34.87;102642.68;106266;1273;23907;-59
2022/03/21 10:16:13;;;;;;;16.70;5.10;;;;;;;8.78;34.72;102642.43;106484;1273;24363;-59
2022/03/21 10:18:59;;;;;;;17.00;6.10;;;;;;;8.82;34.36;102642.48;106440;1273;22877;-60
2022/03/21 10:21:31;;;;;;;19.10;5.80;;;;;;;8.88;34.38;102638.22;106274;1273;23626;-60
2022/03/21 10:24:06;;;;;;;16.30;4.60;;;;;;;8.93;34.28;102635.48;106475;1273;24371;-60
2022/03/21 10:26:42;;;;;;;19.00;6.70;;;;;;;9.00;33.93;102627.77;106399;1273;25258;-59
2022/03/21 10:29:14;;;;;;;18.80;5.80;;;;;;;9.08;33.98;102626.36;106294;1273;22531;-60
2022/03/21 10:31:48;;;;;;;17.70;5.40;;;;;;;9.13;33.78;102624.24;106242;1273;22545;-59
2022/03/21 10:34:21;;;;;;;16.10;4.70;;;;;;;9.16;33.37;102617.38;105809;1273;24389;-59
2022/03/21 10:37:08;;;;;;;16.20;4.90;;;;;;;9.22;33.07;102609.44;105905;1273;25433;-59
2022/03/21 10:39:50;;;;;;;14.30;4.00;;;;;;;9.31;33.07;102609.98;105661;1273;22550;-60
2022/03/21 10:42:22;;;;;;;15.10;3.80;;;;;;;9.41;32.93;102603.27;105663;1273;24402;-58
2022/03/21 10:45:02;;;;;;;12.40;4.00;;;;;;;9.49;32.99;102602.45;105663;1273;22571;-59
2022/03/21 10:47:51;;;;;;;16.50;3.90;;;;;;;9.53;32.63;102598.27;105696;1273;25289;-59
2022/03/21 10:50:37;;;;;;;11.50;3.50;;;;;;;9.59;31.94;102598.77;105629;1273;23206;-59
2022/03/21 10:53:17;;;;;;;15.80;4.50;;;;;;;9.68;31.41;102602.70;106088;1273;25082;-59
2022/03/21 10:55:50;;;;;;;15.30;4.40;;;;;;;9.72;31.66;102599.08;105705;1273;25700;-59
2022/03/21 10:58:35;;;;;;;16.00;4.10;;;;;;;9.73;31.51;102590.46;105793;1273;22547;-60
2022/03/21 11:01:18;;;;;;;13.20;4.30;;;;;;;9.77;31.57;102595.29;105714;1273;22531;-61
2022/03/21 11:03:50;;;;;;;15.50;4.50;;;;;;;9.84;31.36;102592.01;105696;1273;25396;-59
2022/03/21 11:06:23;;;;;;;14.20;3.90;;;;;;;9.85;31.01;102592.08;105671;1273;25369;-58
2022/03/21 11:08:57;;;;;;;14.20;4.00;;;;;;;9.88;30.97;102588.20;105735;1273;22548;-59
2022/03/21 11:11:28;;;;;;;16.60;4.90;;;;;;;9.97;30.81;102586.35;105707;1273;24305;-58
2022/03/21 11:14:01;;;;;;;14.10;4.60;;;;;;;10.03;30.71;102586.09;105987;1273;25496;-59
2022/03/21 11:16:36;;;;;;;15.80;4.70;;;;;;;10.03;30.77;102578.69;105810;1273;22532;-59
2022/03/21 11:19:10;;;;;;;13.40;4.40;;;;;;;10.05;30.64;102576.92;105746;1273;23702;-59
2022/03/21 11:21:42;;;;;;;18.20;5.60;;;;;;;10.10;30.42;102575.65;105835;1273;25256;-60
2022/03/21 11:24:16;;;;;;;14.30;4.40;;;;;;;10.12;30.42;102573.71;105771;1273;24318;-59
2022/03/21 11:26:57;;;;;;;17.20;5.60;;;;;;;10.11;30.32;102567.67;105740;1273;23524;-60
2022/03/21 11:29:41;;;;;;;26.80;11.00;;;;;;;10.11;30.11;102561.69;105725;1273;22541;-60
2022/03/21 11:32:31;;;;;;;47.70;22.40;;;;;;;10.15;29.88;102560.70;105679;1273;22579;-60
2022/03/21 11:35:12;;;;;;;25.40;10.60;;;;;;;10.25;29.99;102561.03;105792;1273;22619;-59
2022/03/21 11:37:43;;;;;;;31.60;13.60;;;;;;;10.31;29.80;102560.06;105677;1273;25542;-58
2022/03/21 11:40:32;;;;;;;21.90;7.10;;;;;;;10.34;29.47;102556.11;105662;1272;24316;-59
2022/03/21 11:43:29;;;;;;;20.70;5.70;;;;;;;10.38;29.02;102549.90;105951;1273;22561;-59
2022/03/21 11:46:29;;;;;;;18.20;7.00;;;;;;;10.42;28.96;102549.11;105712;1273;25207;-62
2022/03/21 11:49:04;;;;;;;17.60;5.10;;;;;;;10.49;28.90;102545.10;105617;1273;22557;-60
2022/03/21 11:51:40;;;;;;;16.40;5.00;;;;;;;10.56;28.83;102546.04;105739;1273;25305;-60
2022/03/21 11:54:28;;;;;;;15.00;5.00;;;;;;;10.59;28.87;102538.64;105965;1271;22525;-61
2022/03/21 11:57:05;;;;;;;19.60;5.80;;;;;;;10.67;28.82;102540.27;106116;1273;22795;-60
2022/03/21 11:59:58;;;;;;;19.60;6.50;;;;;;;10.73;28.66;102534.02;106323;1273;22573;-59
2022/03/21 12:02:58;;;;;;;19.40;6.00;;;;;;;10.76;28.81;102529.89;106613;1271;22660;-60